Terminal Aerodrome Forecast
Issued by NWS Twin Cities, MN

Home | Current Version | Previous Version | Text Only | Print | Product List | Glossary Off
Versions: 1 2 3 4 5 6 7 8 9 10 11 12 13 14 15 16 17 18

000
FTUS43 KMPX 281100
TAFSTC
TAF
KSTC 281137Z 2812/2912 15003KT 6SM BR SCT250
      TEMPO 2812/2814 4SM BR
     FM281500 19006KT P6SM FEW050
     FM281900 21008KT P6SM SCT050
     FM290000 27005KT P6SM BKN040
     FM290600 36004KT P6SM -RA OVC025
     FM290900 01005KT 6SM BR BKN008 OVC016=

USA.gov is the U.S. government's official web portal to all federal, state and local government web resources and services.